Time;durP1;ratioP1;P1;durP2;ratioP2;P2;SDS_P1;SDS_P2;PMS_P1;PMS_P2;Temp;Humidity;BMP_temperature;BMP_pressure;BME280_temperature;BME280_humidity;BME280_pressure;Samples;Min_cycle;Max_cycle;Signal;HPM_P1;HPM_P2
2023/03/23 00:07:46;;;;;;;4.15;2.15;;;;;;;23.94;32.88;102113.38;21071281;28;20044;-72
2023/03/23 00:17:47;;;;;;;5.10;1.88;;;;;;;23.94;32.76;102111.41;21081041;28;20067;-72
2023/03/23 00:27:49;;;;;;;3.22;1.80;;;;;;;23.83;32.89;102079.81;21080236;28;20044;-71
2023/03/23 00:37:55;;;;;;;8.18;2.10;;;;;;;23.87;33.49;102085.69;21080484;28;20040;-70
2023/03/23 00:48:01;;;;;;;11.65;2.20;;;;;;;23.59;34.08;102084.97;21080694;28;20040;-71
2023/03/23 00:58:03;;;;;;;7.05;1.98;;;;;;;23.19;34.57;102023.31;21046150;28;20046;-71
2023/03/23 01:08:06;;;;;;;8.75;2.03;;;;;;;23.49;34.48;102058.91;21021072;28;20135;-71
2023/03/23 01:18:09;;;;;;;4.75;1.83;;;;;;;23.41;34.72;102053.84;20900051;28;20036;-70
2023/03/23 01:28:11;;;;;;;4.10;1.80;;;;;;;23.25;34.98;102039.81;20916422;28;20476;-71
2023/03/23 01:38:12;;;;;;;5.03;1.75;;;;;;;23.47;34.95;102091.88;21061947;28;20074;-71
2023/03/23 01:48:29;;;;;;;6.55;2.42;;;;;;;23.47;35.30;102066.75;21063242;28;20101;-71
2023/03/23 01:58:34;;;;;;;4.55;2.25;;;;;;;23.51;35.64;102060.34;21059765;28;20036;-72
2023/03/23 02:08:36;;;;;;;8.07;2.20;;;;;;;23.04;35.53;101974.59;21047231;28;20040;-71
2023/03/23 02:18:45;;;;;;;8.90;2.13;;;;;;;23.77;34.95;102086.47;21067570;28;20098;-72
2023/03/23 02:28:54;;;;;;;;;;;;;;;24.08;34.39;102069.81;21040235;28;20459;-72
2023/03/23 02:39:00;;;;;;;;;;;;;;;24.28;34.12;102064.28;21069016;28;19916;-70
2023/03/23 02:49:03;;;;;;;2.22;1.35;;;;;;;24.43;34.44;102023.47;21055724;28;19961;-70
2023/03/23 02:59:05;;;;;;;6.80;2.08;;;;;;;24.46;34.04;102008.91;21067303;28;20048;-71
2023/03/23 03:09:28;;;;;;;4.65;1.55;;;;;;;24.19;34.43;102026.78;21058045;28;20479;-70
2023/03/23 03:19:35;;;;;;;4.28;1.90;;;;;;;24.34;34.40;102007.22;21060561;28;20105;-70
2023/03/23 03:29:41;;;;;;;3.67;1.90;;;;;;;24.58;34.33;102051.47;21072016;28;20509;-72
2023/03/23 03:39:42;;;;;;;3.45;1.80;;;;;;;24.40;34.12;101998.84;21064670;28;20039;-71
2023/03/23 03:49:43;;;;;;;2.63;1.65;;;;;;;24.67;33.99;102030.19;21059351;28;20100;-71
2023/03/23 03:59:45;;;;;;;4.95;1.90;;;;;;;24.61;34.14;102028.53;21068686;28;20383;-68
2023/03/23 04:09:47;;;;;;;3.58;1.92;;;;;;;24.11;34.97;102023.69;21058239;28;20052;-67
2023/03/23 04:19:48;;;;;;;8.40;2.00;;;;;;;24.14;34.79;102007.16;21070233;28;20097;-67
2023/03/23 04:29:50;;;;;;;4.82;1.85;;;;;;;24.09;34.75;102009.97;21078065;28;20065;-68
2023/03/23 04:40:00;;;;;;;6.82;2.03;;;;;;;24.05;34.53;102053.56;21065924;28;20036;-68
2023/03/23 04:50:01;;;;;;;4.00;1.77;;;;;;;24.09;34.67;102021.16;21059675;28;20479;-68
2023/03/23 05:00:08;;;;;;;14.60;2.17;;;;;;;24.14;34.58;102023.94;21037178;28;20052;-69
2023/03/23 05:10:15;;;;;;;13.50;2.28;;;;;;;24.13;34.94;101990.69;20996566;28;20044;-67
2023/03/23 05:20:22;;;;;;;6.78;2.25;;;;;;;24.02;34.54;101950.69;21025529;28;20044;-67
2023/03/23 05:30:27;;;;;;;11.43;2.40;;;;;;;24.16;35.26;101940.63;21013338;28;20051;-67
2023/03/23 05:40:29;;;;;;;5.38;2.15;;;;;;;23.59;34.69;101871.75;21055088;28;20097;-67
2023/03/23 05:50:31;;;;;;;6.55;1.90;;;;;;;23.95;34.71;101924.94;21028494;28;20414;-67
2023/03/23 06:00:34;;;;;;;8.00;1.55;;;;;;;23.70;34.65;101862.31;21061939;28;20579;-68
2023/03/23 06:10:38;;;;;;;4.28;1.98;;;;;;;23.78;34.32;101898.13;21053222;28;20044;-66
2023/03/23 06:20:40;;;;;;;2.97;1.90;;;;;;;23.84;34.34;101888.59;21009288;28;20045;-67
2023/03/23 06:30:45;;;;;;;4.07;1.80;;;;;;;23.87;34.12;101858.41;21027306;28;20439;-68
2023/03/23 06:40:55;;;;;;;2.00;1.63;;;;;;;23.80;34.01;101839.97;21066409;28;20086;-67
2023/03/23 06:50:56;;;;;;;4.25;1.67;;;;;;;23.80;34.06;101839.97;21084760;28;20044;-69
2023/03/23 07:00:58;;;;;;;4.13;1.70;;;;;;;23.88;34.11;101824.59;21046260;28;20109;-68
2023/03/23 07:10:59;;;;;;;7.22;1.80;;;;;;;23.96;33.77;101775.66;21060131;28;20098;-67
2023/03/23 07:21:01;;;;;;;3.45;2.20;;;;;;;23.90;33.50;101751.63;21038742;28;20040;-67
2023/03/23 07:31:02;;;;;;;3.63;2.03;;;;;;;23.81;33.67;101713.06;21079454;28;20040;-67
2023/03/23 07:41:05;;;;;;;2.38;2.10;;;;;;;23.78;33.58;101688.50;21078286;28;20032;-68
2023/03/23 07:51:07;;;;;;;3.72;2.50;;;;;;;23.92;33.40;101697.13;21077946;28;20044;-68
2023/03/23 08:01:08;;;;;;;2.85;2.13;;;;;;;23.96;33.16;101702.97;21074596;28;20461;-68
2023/03/23 08:11:10;;;;;;;3.70;2.08;;;;;;;24.00;33.04;101682.56;21077479;28;20052;-67
2023/03/23 08:21:11;;;;;;;2.85;2.13;;;;;;;24.02;33.43;101707.44;21076992;28;20040;-67
2023/03/23 08:31:14;;;;;;;5.05;2.70;;;;;;;23.98;33.17;101681.19;21066873;28;20109;-67
2023/03/23 08:41:16;;;;;;;3.47;2.45;;;;;;;24.05;33.32;101695.69;21075697;28;20109;-67
2023/03/23 08:51:18;;;;;;;4.82;2.45;;;;;;;24.03;33.51;101709.94;21075563;28;20069;-68
2023/03/23 09:01:22;;;;;;;3.03;2.17;;;;;;;23.98;33.01;101711.94;21072285;28;20545;-68
2023/03/23 09:11:24;;;;;;;3.25;2.50;;;;;;;23.28;33.19;101589.66;21074382;28;20096;-68
2023/03/23 09:21:27;;;;;;;3.50;2.63;;;;;;;24.04;33.54;101710.78;21060209;28;20105;-69
2023/03/23 09:31:36;;;;;;;3.95;2.92;;;;;;;24.05;33.25;101704.06;21073588;28;20044;-68
2023/03/23 09:41:37;;;;;;;3.78;2.50;;;;;;;24.04;32.89;101708.81;21076969;28;20036;-69
2023/03/23 09:51:51;;;;;;;3.10;2.58;;;;;;;24.05;32.94;101685.38;21070894;28;20101;-69
2023/03/23 10:02:04;;;;;;;3.20;2.50;;;;;;;24.06;33.09;101742.13;21072996;28;20040;-69
2023/03/23 10:12:17;;;;;;;3.85;2.63;;;;;;;24.04;32.93;101755.53;21076474;28;20059;-69
2023/03/23 10:22:33;;;;;;;3.58;2.90;;;;;;;23.93;33.45;101757.50;21070501;28;20101;-68
2023/03/23 10:32:53;;;;;;;4.57;3.13;;;;;;;23.93;33.14;101745.50;21074251;28;20048;-67
2023/03/23 10:42:56;;;;;;;3.50;2.60;;;;;;;23.89;32.85;101632.56;21035080;28;20472;-68
2023/03/23 10:53:00;;;;;;;4.18;3.13;;;;;;;23.95;33.06;101690.97;21072162;28;20043;-67
2023/03/23 11:03:02;;;;;;;4.35;3.17;;;;;;;24.02;33.07;101752.19;21079200;28;20039;-67
2023/03/23 11:13:04;;;;;;;3.38;2.83;;;;;;;23.94;33.05;101710.81;21088944;28;20036;-67
2023/03/23 11:23:22;;;;;;;3.67;3.20;;;;;;;23.97;33.05;101727.88;21085975;28;20062;-68
2023/03/23 11:33:24;;;;;;;3.40;3.10;;;;;;;23.88;33.13;101667.25;21085797;28;20048;-69
2023/03/23 11:43:32;;;;;;;4.18;3.45;;;;;;;23.59;33.27;101593.22;21064588;28;20048;-69
2023/03/23 11:53:50;;;;;;;5.80;3.43;;;;;;;23.96;33.49;101585.56;21075412;28;20089;-68
2023/03/23 12:04:03;;;;;;;4.50;3.38;;;;;;;23.95;33.29;101551.19;21079512;28;20747;-68
2023/03/23 12:14:13;;;;;;;3.03;2.72;;;;;;;23.96;35.25;101546.44;21078539;28;20044;-68
2023/03/23 12:24:57;;;;;;;16.98;4.18;;;;;;;23.96;35.55;101554.81;21081594;28;20368;-69
2023/03/23 12:35:05;;;;;;;15.48;3.70;;;;;;;24.02;35.49;101526.56;21082680;28;20079;-69
2023/03/23 12:45:46;;;;;;;9.40;3.40;;;;;;;23.97;35.36;101506.19;21078703;28;20044;-69
2023/03/23 12:56:05;;;;;;;11.57;4.20;;;;;;;24.00;35.19;101502.81;21059609;28;20062;-71
2023/03/23 13:06:22;;;;;;;10.70;3.60;;;;;;;24.02;35.21;101462.25;21068856;28;20044;-66
2023/03/23 13:16:37;;;;;;;9.47;3.87;;;;;;;23.81;34.99;101433.59;21072270;28;20032;-64
2023/03/23 13:26:48;;;;;;;8.30;3.45;;;;;;;23.88;35.05;101440.84;21070491;28;20487;-66
2023/03/23 13:36:54;;;;;;;6.25;3.75;;;;;;;23.98;34.82;101477.94;21075421;28;20344;-65
2023/03/23 13:47:08;;;;;;;10.40;4.45;;;;;;;24.01;34.67;101455.00;21077718;28;20078;-65
2023/03/23 13:57:26;;;;;;;;;;;;;;;24.00;34.56;101416.13;21074651;28;20044;-65
2023/03/23 14:07:30;;;;;;;6.88;4.20;;;;;;;24.01;34.55;101437.41;21076364;28;19916;-65
2023/03/23 14:17:41;;;;;;;12.85;4.30;;;;;;;23.86;34.99;101418.75;21072309;28;20062;-65
2023/03/23 14:27:45;;;;;;;7.35;4.28;;;;;;;23.91;34.69;101526.88;21075473;28;20044;-67
2023/03/23 14:37:47;;;;;;;5.60;4.43;;;;;;;23.55;34.85;101351.03;21083694;28;20044;-66
2023/03/23 14:48:00;;;;;;;8.52;5.15;;;;;;;23.84;35.36;101405.06;21090449;28;20055;-65
2023/03/23 14:58:09;;;;;;;7.85;5.00;;;;;;;23.72;35.72;101284.44;21081729;28;20403;-66
2023/03/23 15:08:32;;;;;;;7.75;4.80;;;;;;;23.65;35.61;101302.69;21082681;28;20441;-63
2023/03/23 15:18:36;;;;;;;6.93;4.95;;;;;;;23.81;36.01;101376.88;21062615;28;20024;-64
2023/03/23 15:28:40;;;;;;;9.90;5.53;;;;;;;23.77;35.76;101396.16;21084606;28;20043;-71
2023/03/23 15:38:47;;;;;;;10.63;4.93;;;;;;;23.80;35.40;101384.41;21086435;28;20032;-73
2023/03/23 15:49:08;;;;;;;10.60;5.88;;;;;;;23.71;35.22;101355.41;21085197;28;20044;-72
2023/03/23 15:59:10;;;;;;;10.35;5.90;;;;;;;23.67;35.43;101275.25;21085522;28;20066;-71
2023/03/23 16:09:17;;;;;;;11.23;5.32;;;;;;;23.69;35.86;101268.28;21083911;28;20669;-72
2023/03/23 16:19:23;;;;;;;10.00;5.78;;;;;;;23.79;35.66;101240.22;21083336;28;20036;-71
2023/03/23 16:29:24;;;;;;;7.00;6.03;;;;;;;23.58;35.77;101197.63;21082879;28;20101;-71
2023/03/23 16:39:25;;;;;;;6.88;5.57;;;;;;;23.22;35.81;101129.25;21081638;28;20048;-71
2023/03/23 16:49:27;;;;;;;8.75;5.57;;;;;;;23.77;35.70;101205.31;21080794;28;20044;-72
2023/03/23 16:59:28;;;;;;;8.73;5.50;;;;;;;23.76;35.62;101179.34;21079310;28;20066;-72
2023/03/23 17:09:35;;;;;;;6.93;5.25;;;;;;;23.73;35.91;101173.50;21079305;28;20040;-72
2023/03/23 17:19:40;;;;;;;7.37;6.03;;;;;;;23.70;35.91;101158.19;21077953;28;20044;-72
2023/03/23 17:29:41;;;;;;;8.43;5.60;;;;;;;23.72;35.95;101133.56;21078488;28;20032;-72
2023/03/23 17:39:43;;;;;;;8.82;5.80;;;;;;;23.53;35.61;101101.88;21077775;28;20047;-72
2023/03/23 17:49:45;;;;;;;7.97;6.60;;;;;;;23.61;35.77;101059.34;21076998;28;20445;-72
2023/03/23 17:59:46;;;;;;;6.43;5.70;;;;;;;23.55;35.88;101077.28;21076375;28;20040;-72
2023/03/23 18:09:49;;;;;;;6.40;5.78;;;;;;;23.52;35.86;101061.13;21080079;28;20032;-72
2023/03/23 18:19:50;;;;;;;8.68;6.60;;;;;;;23.51;35.82;101043.53;21092400;28;20544;-72
2023/03/23 18:29:57;;;;;;;6.40;5.80;;;;;;;23.48;35.70;101006.97;21092366;28;20028;-71
2023/03/23 18:39:59;;;;;;;6.53;5.80;;;;;;;23.43;36.09;100982.72;21091587;28;20086;-72
2023/03/23 18:50:00;;;;;;;6.90;5.45;;;;;;;22.98;35.80;100915.09;21090534;28;20052;-72
2023/03/23 19:00:03;;;;;;;7.13;6.40;;;;;;;23.57;35.69;100968.88;21089772;28;20384;-73
2023/03/23 19:10:08;;;;;;;7.28;6.03;;;;;;;23.43;35.19;100938.03;21089249;28;20028;-72
2023/03/23 19:20:10;;;;;;;7.32;6.15;;;;;;;23.25;35.19;100908.94;21087944;28;20032;-71
2023/03/23 19:30:13;;;;;;;6.80;5.88;;;;;;;23.68;35.22;100959.25;21087996;28;20098;-70
2023/03/23 19:40:17;;;;;;;6.90;5.97;;;;;;;23.75;35.52;100928.16;21087317;28;20032;-72
2023/03/23 19:50:18;;;;;;;6.13;5.43;;;;;;;23.62;35.23;100882.22;21086129;28;20100;-71
2023/03/23 20:00:20;;;;;;;6.13;5.45;;;;;;;23.84;35.42;100912.41;21085700;28;20035;-71
2023/03/23 20:10:21;;;;;;;5.90;5.30;;;;;;;23.91;35.47;100898.03;21085663;28;20028;-71
2023/03/23 20:20:26;;;;;;;6.60;5.57;;;;;;;23.77;35.74;100895.97;21083733;28;20040;-71
2023/03/23 20:30:28;;;;;;;7.43;6.18;;;;;;;23.68;35.41;100830.75;21082956;28;20062;-71
2023/03/23 20:40:29;;;;;;;6.25;5.65;;;;;;;24.03;35.70;100898.41;21082078;28;20089;-71
2023/03/23 20:50:32;;;;;;;6.70;5.80;;;;;;;24.03;35.64;100876.06;21080116;28;20064;-71
2023/03/23 21:00:33;;;;;;;6.30;5.70;;;;;;;23.89;35.56;100847.22;21080298;28;20553;-72
2023/03/23 21:10:34;;;;;;;6.68;5.90;;;;;;;23.91;36.14;100839.34;21079622;28;20044;-71
2023/03/23 21:20:36;;;;;;;5.88;5.28;;;;;;;23.75;35.57;100780.91;21079288;28;20440;-71
2023/03/23 21:30:44;;;;;;;8.43;6.20;;;;;;;24.08;36.13;100828.44;21077365;28;20460;-72
2023/03/23 21:40:45;;;;;;;6.70;5.50;;;;;;;23.78;35.47;100802.66;21078083;28;20044;-72
2023/03/23 21:50:47;;;;;;;6.70;5.60;;;;;;;23.72;36.00;100781.50;21076591;28;20109;-73
2023/03/23 22:00:52;;;;;;;6.68;5.32;;;;;;;23.83;36.19;100794.19;21077111;28;20372;-72
2023/03/23 22:11:02;;;;;;;6.78;6.00;;;;;;;24.00;35.66;100803.97;21075591;28;20048;-72
2023/03/23 22:21:09;;;;;;;6.45;5.75;;;;;;;23.79;35.98;100742.03;21076033;28;20040;-72
2023/03/23 22:31:16;;;;;;;6.07;5.40;;;;;;;23.72;35.99;100706.06;21076125;28;20467;-72
2023/03/23 22:41:21;;;;;;;6.20;5.60;;;;;;;24.13;35.79;100752.88;21075585;28;20024;-72
2023/03/23 22:51:25;;;;;;;6.72;5.22;;;;;;;24.13;35.89;100769.66;21074825;28;20093;-72
2023/03/23 23:01:29;;;;;;;7.13;5.63;;;;;;;24.12;35.65;100769.97;21086698;28;20060;-71
2023/03/23 23:11:31;;;;;;;7.70;5.88;;;;;;;23.99;35.57;100768.78;21087974;28;20039;-72
2023/03/23 23:21:33;;;;;;;6.20;5.55;;;;;;;24.07;35.67;100760.53;21087385;28;20036;-72
2023/03/23 23:31:34;;;;;;;5.70;5.18;;;;;;;24.04;35.49;100771.50;21087625;28;20471;-71
2023/03/23 23:41:39;;;;;;;6.47;5.57;;;;;;;24.03;35.77;100770.66;21086749;28;20081;-71
2023/03/23 23:51:40;;;;;;;6.38;5.30;;;;;;;24.04;35.63;100763.09;21085562;28;20105;-71
